Time;durP1;ratioP1;P1;durP2;ratioP2;P2;SDS_P1;SDS_P2;PMS_P1;PMS_P2;Temp;Humidity;BMP_temperature;BMP_pressure;BME280_temperature;BME280_humidity;BME280_pressure;Samples;Min_cycle;Max_cycle;Signal;HPM_P1;HPM_P2
2022/11/25 00:00:43;;;;;;;;;;;;;;;5.00;76.81;101372.94;5111102;27;20016;-62
2022/11/25 00:03:08;;;;;;;;;;;;;;;5.00;76.91;101368.56;5091849;28;19968;-61
2022/11/25 00:05:33;;;;;;;;;;;;;;;5.00;76.93;101367.72;5109333;27;19919;-63
2022/11/25 00:07:58;;;;;;;;;;;;;;;5.02;76.88;101373.75;5114352;27;19982;-60
2022/11/25 00:10:24;;;;;;;;;;;;;;;5.00;76.94;101372.94;5114753;27;19932;-61
2022/11/25 00:12:49;;;;;;;;;;;;;;;4.97;76.86;101373.00;5105564;28;20447;-62
2022/11/25 00:15:14;;;;;;;;;;;;;;;4.95;76.86;101370.44;5110931;28;20033;-59
2022/11/25 00:17:40;;;;;;;;;;;;;;;4.95;77.34;101380.88;5105450;28;19984;-62
2022/11/25 00:20:05;;;;;;;;;;;;;;;4.93;77.50;101387.00;5105989;27;19928;-62
2022/11/25 00:22:31;;;;;;;;;;;;;;;4.93;77.35;101384.38;5111391;27;19964;-62
2022/11/25 00:24:56;;;;;;;;;;;;;;;4.92;77.08;101380.06;5113738;27;19919;-62
2022/11/25 00:27:21;;;;;;;;;;;;;;;4.90;77.46;101380.13;5110068;27;19920;-63
2022/11/25 00:29:46;;;;;;;;;;;;;;;4.89;77.58;101383.63;5109527;28;19920;-62
2022/11/25 00:32:12;;;;;;;;;;;;;;;4.90;77.43;101387.09;5105757;27;19986;-60
2022/11/25 00:34:37;;;;;;;;;;;;;;;4.90;77.56;101387.09;5110728;27;20353;-60
2022/11/25 00:37:02;;;;;;;;;;;;;;;4.90;77.34;101387.09;5104395;27;20321;-63
2022/11/25 00:39:28;;;;;;;;;;;;;;;4.90;77.29;101387.94;5109438;27;19935;-62
2022/11/25 00:44:40;;;;;;;;;;;;;;;4.92;77.52;101385.28;5101181;27;20394;-62
2022/11/25 00:47:07;;;;;;;;;;;;;;;4.92;77.24;101386.16;5103785;28;19942;-63
2022/11/25 00:49:33;;;;;;;;;;;;;;;4.93;77.16;101392.22;5088865;28;19974;-62
2022/11/25 00:51:58;;;;;;;;;;;;;;;4.94;77.59;101396.53;5100216;27;19955;-65
2022/11/25 00:54:23;;;;;;;;;;;;;;;4.94;77.29;101399.16;5100929;28;19927;-63
2022/11/25 00:56:49;;;;;;;;;;;;;;;4.94;77.18;101399.16;5086755;28;19942;-61
2022/11/25 00:59:14;;;;;;;;;;;;;;;4.95;77.51;101403.47;5108207;27;19942;-64
2022/11/25 01:01:40;;;;;;;;;;;;;;;4.92;77.79;101401.81;5101313;27;19927;-64
2022/11/25 01:04:06;;;;;;;;;;;;;;;4.94;77.53;101393.94;5104605;27;19920;-62
2022/11/25 01:06:31;;;;;;;;;;;;;;;4.94;77.63;101413.06;5111392;27;20343;-61
2022/11/25 01:08:56;;;;;;;;;;;;;;;4.94;77.47;101410.44;5109451;27;20290;-61
2022/11/25 01:11:22;;;;;;;;;;;;;;;4.95;77.55;101414.78;5108926;27;20007;-62
2022/11/25 01:13:48;;;;;;;;;;;;;;;4.97;77.27;101414.72;5109093;27;19927;-62
2022/11/25 01:16:14;;;;;;;;;;;;;;;4.97;77.29;101419.94;5106518;27;20386;-62
2022/11/25 01:18:40;;;;;;;;;;;;;;;4.97;77.50;101414.72;5111583;27;19911;-63
2022/11/25 01:21:06;;;;;;;;;;;;;;;4.95;77.28;101408.69;5101377;27;19916;-61
2022/11/25 01:23:31;;;;;;;;;;;;;;;4.95;77.34;101416.50;5107700;27;19930;-62
2022/11/25 01:25:59;;;;;;;;;;;;;;;4.93;77.34;101407.88;5110253;27;19939;-61
2022/11/25 01:28:24;;;;;;;;;;;;;;;4.92;77.55;101416.56;5112448;28;19955;-60
2022/11/25 01:30:58;;;;;;;;;;;;;;;4.90;77.55;101407.97;5109151;27;19970;-59
2022/11/25 01:33:24;;;;;;;;;;;;;;;4.90;77.60;101413.19;5097250;28;20298;-63
2022/11/25 01:35:49;;;;;;;;;;;;;;;4.90;77.35;101413.19;5111377;27;19919;-64
2022/11/25 01:38:14;;;;;;;;;;;;;;;4.92;77.61;101411.38;5104428;27;19927;-63
2022/11/25 01:40:40;;;;;;;;;;;;;;;4.95;77.59;101416.50;5111694;27;20398;-62
2022/11/25 01:43:09;;;;;;;;;;;;;;;4.93;77.40;101407.88;5108973;27;19916;-62
2022/11/25 01:45:36;;;;;;;;;;;;;;;4.93;77.19;101410.47;5107392;27;19958;-59
2022/11/25 01:48:05;;;;;;;;;;;;;;;4.93;77.53;101405.25;5103308;27;20384;-60
2022/11/25 01:50:32;;;;;;;;;;;;;;;4.96;77.19;101413.00;5107466;28;19912;-65
2022/11/25 01:52:59;;;;;;;;;;;;;;;4.92;77.06;101400.94;5109697;27;19973;-61
2022/11/25 01:55:29;;;;;;;;;;;;;;;4.91;77.47;101401.84;5109216;27;20669;-63
2022/11/25 01:57:58;;;;;;;;;;;;;;;4.90;77.42;101397.53;5106105;27;19963;-63
2022/11/25 02:00:24;;;;;;;;;;;;;;;4.91;77.37;101399.25;5102969;28;19916;-60
2022/11/25 02:02:50;;;;;;;;;;;;;;;4.90;77.09;101397.53;5107422;28;20435;-61
2022/11/25 02:05:18;;;;;;;;;;;;;;;4.91;77.66;101396.63;5110279;27;19924;-59
2022/11/25 02:07:45;;;;;;;;;;;;;;;4.87;77.87;101386.28;5104032;27;19919;-62
2022/11/25 02:10:13;;;;;;;;;;;;;;;4.87;77.57;101399.31;5102011;27;19928;-62
2022/11/25 02:12:40;;;;;;;;;;;;;;;4.85;77.88;101395.00;5105744;28;20570;-60
2022/11/25 02:15:05;;;;;;;;;;;;;;;4.86;77.61;101391.50;5103084;27;19924;-62
2022/11/25 02:17:31;;;;;;;;;;;;;;;4.88;77.72;101385.38;5106004;28;19928;-64
2022/11/25 02:20:07;;;;;;;;;;;;;;;4.90;77.74;101393.16;5091791;28;19990;-63
2022/11/25 02:22:45;;;;;;;;;;;;;;;4.93;77.69;101397.44;5106815;27;20332;-62
2022/11/25 02:25:13;;;;;;;;;;;;;;;4.90;77.63;101382.72;5107094;27;19961;-62
2022/11/25 02:27:40;;;;;;;;;;;;;;;4.88;77.55;101393.19;5105372;28;19919;-62
2022/11/25 02:30:05;;;;;;;;;;;;;;;4.83;77.66;101392.44;5105169;27;19977;-60
2022/11/25 02:32:31;;;;;;;;;;;;;;;4.79;77.51;101388.19;5106235;28;19998;-62
2022/11/25 02:34:56;;;;;;;;;;;;;;;4.77;77.51;101386.50;5109354;27;19923;-62
2022/11/25 02:37:22;;;;;;;;;;;;;;;4.76;77.44;101383.06;5108734;27;20998;-59
2022/11/25 02:39:49;;;;;;;;;;;;;;;4.73;77.57;101388.34;5099970;28;20002;-62
2022/11/25 02:42:16;;;;;;;;;;;;;;;4.71;77.30;101387.50;5109824;27;19941;-62
2022/11/25 02:44:41;;;;;;;;;;;;;;;4.67;77.34;101383.25;5108360;27;19969;-62
2022/11/25 02:47:06;;;;;;;;;;;;;;;4.65;77.56;101385.03;5105566;27;19951;-59
2022/11/25 02:49:32;;;;;;;;;;;;;;;4.61;77.86;101386.03;5107807;27;20365;-60
2022/11/25 02:51:57;;;;;;;;;;;;;;;4.56;77.41;101373.94;5108436;28;19924;-62
2022/11/25 02:54:22;;;;;;;;;;;;;;;4.54;78.03;101380.94;5112548;27;19920;-62
2022/11/25 02:56:48;;;;;;;;;;;;;;;4.54;78.12;101367.91;5110124;28;20369;-62
2022/11/25 02:59:13;;;;;;;;;;;;;;;4.55;78.07;101372.22;5106316;28;19916;-62
2022/11/25 03:01:38;;;;;;;;;;;;;;;4.52;77.85;101372.28;5105308;27;19920;-63
2022/11/25 03:04:04;;;;;;;;;;;;;;;4.51;78.43;101367.97;5101778;28;20556;-63
2022/11/25 03:06:29;;;;;;;;;;;;;;;4.54;78.01;101367.91;5087294;28;19949;-62
2022/11/25 03:08:55;;;;;;;;;;;;;;;4.56;78.46;101360.03;5103742;28;19916;-61
2022/11/25 03:12:17;;;;;;;;;;;;;;;4.60;78.44;101363.44;5105371;28;19965;-61
2022/11/25 03:14:06;;;;;;;;;;;;;;;4.61;78.37;101371.22;5106946;28;19963;-60
2022/11/25 03:16:31;;;;;;;;;;;;;;;4.63;78.29;101365.97;5091499;28;19967;-60
2022/11/25 03:18:56;;;;;;;;;;;;;;;4.65;77.92;101367.66;5101981;28;19973;-61
2022/11/25 03:21:22;;;;;;;;;;;;;;;4.64;78.13;101371.16;5099982;28;19920;-61
2022/11/25 03:23:47;;;;;;;;;;;;;;;4.66;78.15;101369.38;5109266;28;19928;-60
2022/11/25 03:26:12;;;;;;;;;;;;;;;4.68;78.38;101382.38;5105821;28;20325;-61
2022/11/25 03:28:37;;;;;;;;;;;;;;;4.71;78.09;101374.47;5101627;28;19985;-61
2022/11/25 03:31:03;;;;;;;;;;;;;;;4.74;78.32;101379.63;5102159;28;19920;-62
2022/11/25 03:33:28;;;;;;;;;;;;;;;4.77;77.97;101397.78;5109675;28;19939;-62
2022/11/25 03:35:53;;;;;;;;;;;;;;;4.78;78.02;101396.91;5105209;28;19935;-61
2022/11/25 03:38:19;;;;;;;;;;;;;;;4.78;78.19;101403.88;5111280;28;19939;-58
2022/11/25 03:40:46;;;;;;;;;;;;;;;4.80;78.29;101402.94;5105132;28;19943;-62
2022/11/25 03:43:11;;;;;;;;;;;;;;;4.82;77.97;101406.38;5105147;28;19927;-64
2022/11/25 03:45:36;;;;;;;;;;;;;;;4.78;78.12;101409.94;5107152;28;19923;-62
2022/11/25 03:48:01;;;;;;;;;;;;;;;4.74;77.95;101400.50;5109352;28;19962;-60
2022/11/25 03:50:27;;;;;;;;;;;;;;;4.81;77.99;101399.44;5108319;28;20325;-60
2022/11/25 03:52:52;;;;;;;;;;;;;;;4.86;77.76;101401.94;5110852;28;19967;-60
2022/11/25 03:55:17;;;;;;;;;;;;;;;4.83;77.80;101397.66;5110810;28;20568;-61
2022/11/25 03:57:43;;;;;;;;;;;;;;;4.84;77.66;101394.16;5106898;28;19922;-63
2022/11/25 04:00:11;;;;;;;;;;;;;;;4.85;77.74;101395.88;5094255;28;19995;-62
2022/11/25 04:02:37;;;;;;;;;;;;;;;4.86;77.75;101397.59;5112379;27;19922;-63
2022/11/25 04:05:04;;;;;;;;;;;;;;;4.87;77.59;101394.09;5101907;28;19915;-63
2022/11/25 04:07:29;;;;;;;;;;;;;;;4.89;77.70;101396.66;5110639;27;19963;-62
2022/11/25 04:09:54;;;;;;;;;;;;;;;4.92;77.69;101399.19;5108502;27;20019;-61
2022/11/25 04:15:04;;;;;;;;;;;;;;;4.94;77.60;101397.41;5110631;27;20420;-62
2022/11/25 04:17:29;;;;;;;;;;;;;;;4.92;77.23;101401.81;5115980;27;19919;-62
2022/11/25 04:19:54;;;;;;;;;;;;;;;4.90;77.63;101407.97;5111513;27;20055;-62
2022/11/25 04:22:20;;;;;;;;;;;;;;;4.85;77.60;101411.53;5105301;27;20298;-60
2022/11/25 04:24:45;;;;;;;;;;;;;;;4.84;77.76;101415.03;5105383;27;19942;-62
2022/11/25 04:27:10;;;;;;;;;;;;;;;4.83;77.86;101405.47;5108520;28;19924;-62
2022/11/25 04:29:35;;;;;;;;;;;;;;;4.81;77.49;101398.59;5112866;27;19973;-62
2022/11/25 04:32:01;;;;;;;;;;;;;;;4.82;77.88;101398.56;5110465;27;19974;-61
2022/11/25 04:34:26;;;;;;;;;;;;;;;4.81;77.83;101402.03;5111216;27;20459;-63
2022/11/25 04:36:51;;;;;;;;;;;;;;;4.79;77.99;101401.22;5106487;27;19966;-61
2022/11/25 04:39:17;;;;;;;;;;;;;;;4.79;77.82;101406.44;5105107;27;20355;-61
2022/11/25 04:41:42;;;;;;;;;;;;;;;4.79;77.99;101406.44;5110561;27;19923;-62
2022/11/25 04:44:08;;;;;;;;;;;;;;;4.78;77.98;101403.88;5111892;27;19919;-60
2022/11/25 04:46:36;;;;;;;;;;;;;;;4.78;77.86;101407.31;5113109;27;19938;-62
2022/11/25 04:49:02;;;;;;;;;;;;;;;4.80;78.32;101407.31;5113549;27;19958;-62
2022/11/25 04:51:27;;;;;;;;;;;;;;;4.81;78.38;101415.09;5108248;28;19966;-62
2022/11/25 04:53:52;;;;;;;;;;;;;;;4.83;77.88;101420.28;5109967;27;20018;-61
2022/11/25 04:56:18;;;;;;;;;;;;;;;4.83;78.33;101426.34;5094834;27;19915;-63
2022/11/25 05:01:30;;;;;;;;;;;;;;;4.84;78.47;101428.06;5103124;27;20016;-63
2022/11/25 05:03:56;;;;;;;;;;;;;;;4.85;77.98;101429.78;5112716;27;19920;-61
2022/11/25 05:06:21;;;;;;;;;;;;;;;4.86;78.51;101438.44;5106292;27;19924;-62
2022/11/25 05:08:47;;;;;;;;;;;;;;;4.85;78.24;101432.38;5108202;27;20302;-61
2022/11/25 05:11:13;;;;;;;;;;;;;;;4.90;78.53;101444.47;5110421;27;19919;-62
2022/11/25 05:13:38;;;;;;;;;;;;;;;4.90;78.18;101444.47;5104138;27;19931;-63
2022/11/25 05:16:03;;;;;;;;;;;;;;;4.91;78.11;101451.41;5115358;27;19920;-63
2022/11/25 05:18:29;;;;;;;;;;;;;;;4.91;78.55;101440.97;5106712;27;20602;-62
2022/11/25 05:20:54;;;;;;;;;;;;;;;4.91;78.61;101459.22;5098925;27;19916;-61
2022/11/25 05:23:22;;;;;;;;;;;;;;;4.91;78.66;101459.22;5107877;27;19945;-62
2022/11/25 05:25:47;;;;;;;;;;;;;;;4.90;78.38;101465.34;5110757;27;19920;-62
2022/11/25 05:28:12;;;;;;;;;;;;;;;4.91;78.50;101469.66;5102555;27;19920;-63
2022/11/25 05:30:38;;;;;;;;;;;;;;;4.94;78.22;101472.16;5100452;27;19919;-63
2022/11/25 05:33:03;;;;;;;;;;;;;;;4.96;78.15;101473.88;5087775;27;19975;-61
2022/11/25 05:35:28;;;;;;;;;;;;;;;4.96;78.37;101467.78;5100318;27;20301;-63
2022/11/25 05:37:53;;;;;;;;;;;;;;;4.98;78.31;101468.63;5104736;28;20325;-61
2022/11/25 05:40:19;;;;;;;;;;;;;;;4.97;78.54;101473.00;5103934;28;19920;-62
2022/11/25 05:42:44;;;;;;;;;;;;;;;4.98;78.20;101460.78;5101624;28;19949;-62
2022/11/25 05:45:10;;;;;;;;;;;;;;;5.02;78.25;101459.84;5100965;27;20434;-62
2022/11/25 05:47:35;;;;;;;;;;;;;;;5.06;78.31;101456.28;5102160;27;20365;-62
2022/11/25 05:50:00;;;;;;;;;;;;;;;5.06;77.99;101460.63;5106322;28;20328;-64
2022/11/25 05:52:26;;;;;;;;;;;;;;;5.07;78.16;101460.56;5107484;28;19935;-61
2022/11/25 05:54:51;;;;;;;;;;;;;;;5.09;78.15;101464.00;5100213;28;19920;-62
2022/11/25 05:57:16;;;;;;;;;;;;;;;5.11;77.82;101470.03;5109529;27;20429;-61
2022/11/25 05:59:41;;;;;;;;;;;;;;;5.09;78.15;101471.81;5101860;28;19990;-61
2022/11/25 06:02:07;;;;;;;;;;;;;;;5.09;77.86;101482.25;5091668;27;19928;-62
2022/11/25 06:04:32;;;;;;;;;;;;;;;5.09;78.24;101484.88;5087050;28;20302;-62
2022/11/25 06:06:58;;;;;;;;;;;;;;;5.12;78.00;101492.63;5110578;27;20341;-62
2022/11/25 06:09:23;;;;;;;;;;;;;;;5.08;78.23;101484.91;5109217;28;19916;-61
2022/11/25 06:11:48;;;;;;;;;;;;;;;5.07;78.13;101494.47;5110488;27;19927;-63
2022/11/25 06:14:14;;;;;;;;;;;;;;;5.04;78.18;101494.56;5103513;28;19959;-63
2022/11/25 06:16:39;;;;;;;;;;;;;;;5.04;78.33;101494.56;5108016;28;19924;-61
2022/11/25 06:19:05;;;;;;;;;;;;;;;5.04;78.19;101499.78;5106476;28;19916;-62
2022/11/25 06:21:30;;;;;;;;;;;;;;;5.02;78.45;101496.34;5107948;27;19934;-64
2022/11/25 06:23:56;;;;;;;;;;;;;;;5.04;78.44;101499.78;5103181;27;19924;-59
2022/11/25 06:26:21;;;;;;;;;;;;;;;5.03;78.39;101498.06;5108449;27;19962;-62
2022/11/25 06:28:49;;;;;;;;;;;;;;;5.03;78.22;101498.91;5103457;28;19920;-61
2022/11/25 06:31:15;;;;;;;;;;;;;;;5.03;78.37;101493.69;5107298;27;19962;-62
2022/11/25 06:33:41;;;;;;;;;;;;;;;5.05;78.09;101498.91;5103943;27;20409;-61
2022/11/25 06:36:08;;;;;;;;;;;;;;;5.07;78.42;101511.91;5095719;27;19923;-62
2022/11/25 06:38:34;;;;;;;;;;;;;;;5.05;78.40;101511.94;5105604;27;20497;-63
2022/11/25 06:41:00;;;;;;;;;;;;;;;5.06;78.48;101518.88;5115556;27;20006;-62
2022/11/25 06:43:25;;;;;;;;;;;;;;;5.06;78.59;101512.78;5091589;28;19916;-59
2022/11/25 06:45:51;;;;;;;;;;;;;;;5.08;78.26;101513.63;5108254;27;19964;-63
2022/11/25 06:48:16;;;;;;;;;;;;;;;5.08;78.35;101511.00;5103194;27;19920;-65
2022/11/25 06:50:41;;;;;;;;;;;;;;;5.07;78.43;101510.13;5083720;28;19963;-62
2022/11/25 06:53:07;;;;;;;;;;;;;;;5.06;78.59;101503.22;5103083;27;19993;-62
2022/11/25 06:55:32;;;;;;;;;;;;;;;5.05;78.34;101506.72;5109063;27;19920;-62
2022/11/25 06:57:57;;;;;;;;;;;;;;;5.06;78.36;101507.56;5108214;27;19927;-63
2022/11/25 07:00:23;;;;;;;;;;;;;;;5.07;78.70;101509.28;5110082;28;20010;-63
2022/11/25 07:02:48;;;;;;;;;;;;;;;5.04;78.81;101513.69;5103208;28;19922;-62
2022/11/25 07:05:13;;;;;;;;;;;;;;;5.07;78.76;101509.28;5106190;28;19926;-61
2022/11/25 07:07:39;;;;;;;;;;;;;;;5.09;78.93;101518.78;5096686;28;19931;-62
2022/11/25 07:10:04;;;;;;;;;;;;;;;5.07;78.73;101515.34;5109011;28;19923;-62
2022/11/25 07:12:30;;;;;;;;;;;;;;;5.12;78.77;101528.31;5103187;28;19951;-63
2022/11/25 07:14:55;;;;;;;;;;;;;;;5.13;78.73;101520.44;5102580;28;19959;-63
2022/11/25 07:17:20;;;;;;;;;;;;;;;5.17;78.55;101526.44;5093766;28;19953;-62
2022/11/25 07:19:45;;;;;;;;;;;;;;;5.16;78.64;101533.41;5120359;22;19931;-61
2022/11/25 07:22:11;;;;;;;;;;;;;;;5.13;78.57;101530.88;5105480;28;20560;-62
2022/11/25 07:24:36;;;;;;;;;;;;;;;5.11;78.82;101532.66;5090060;28;20301;-58
2022/11/25 07:27:04;;;;;;;;;;;;;;;5.07;78.93;101538.81;5103707;28;20445;-58
2022/11/25 07:29:30;;;;;;;;;;;;;;;5.07;79.09;101536.22;5103022;28;20377;-58
2022/11/25 07:31:55;;;;;;;;;;;;;;;5.05;79.34;101532.81;5103711;28;19916;-60
2022/11/25 07:34:20;;;;;;;;;;;;;;;5.06;79.45;101537.13;5100133;28;19932;-60
2022/11/25 07:36:47;;;;;;;;;;;;;;;5.05;79.50;101527.59;5105862;28;19927;-59
2022/11/25 07:39:20;;;;;;;;;;;;;;;5.09;79.53;101531.81;5106603;28;19926;-60
2022/11/25 07:41:47;;;;;;;;;;;;;;;5.09;79.43;101530.97;5106350;28;19984;-61
2022/11/25 07:44:13;;;;;;;;;;;;;;;5.08;79.15;101537.94;5111641;27;19916;-59
2022/11/25 07:46:40;;;;;;;;;;;;;;;5.10;79.70;101541.38;5108188;27;19927;-62
2022/11/25 07:49:25;;;;;;;;;;;;;;;5.12;79.52;101529.16;5106347;27;19915;-59
2022/11/25 07:51:52;;;;;;;;;;;;;;;5.14;79.38;101535.22;5105330;27;20382;-59
2022/11/25 07:54:18;;;;;;;;;;;;;;;5.18;79.09;101533.38;5111066;27;19925;-60
2022/11/25 07:56:43;;;;;;;;;;;;;;;5.22;79.09;101528.97;5113408;28;19911;-58
2022/11/25 07:59:13;;;;;;;;;;;;;;;5.25;79.00;101529.75;5108592;28;19916;-59
2022/11/25 08:01:39;;;;;;;;;;;;;;;5.30;78.67;101532.25;5109593;27;19912;-61
2022/11/25 08:04:06;;;;;;;;;;;;;;;5.34;78.38;101534.75;5109833;28;19965;-60
2022/11/25 08:06:31;;;;;;;;;;;;;;;5.36;78.59;101533.84;5109886;28;20325;-59
2022/11/25 08:08:57;;;;;;;;;;;;;;;5.36;78.57;101536.47;5102851;27;19936;-59
2022/11/25 08:11:27;;;;;;;;;;;;;;;5.37;78.44;101531.19;5111728;28;19919;-61
2022/11/25 08:13:52;;;;;;;;;;;;;;;5.40;78.42;101528.53;5108124;27;20418;-60
2022/11/25 08:16:19;;;;;;;;;;;;;;;5.41;78.49;101526.78;5113728;28;19920;-60
2022/11/25 08:18:44;;;;;;;;;;;;;;;5.41;78.30;101529.41;5099688;27;20452;-59
2022/11/25 08:21:11;;;;;;;;;;;;;;;5.39;78.54;101529.41;5102903;27;19922;-58
2022/11/25 08:23:37;;;;;;;;;;;;;;;5.41;78.67;101532.84;5093930;28;20059;-62
2022/11/25 08:26:07;;;;;;;;;;;;;;;5.45;78.31;101531.88;5112203;28;20018;-61
2022/11/25 08:28:32;;;;;;;;;;;;;;;5.44;78.72;101535.41;5107189;28;19915;-58
2022/11/25 08:31:05;;;;;;;;;;;;;;;5.44;78.37;101532.78;5105743;27;19923;-62
2022/11/25 08:33:31;;;;;;;;;;;;;;;5.48;78.38;101530.94;5106221;28;20383;-62
2022/11/25 08:35:56;;;;;;;;;;;;;;;5.55;78.58;101529.06;5093516;28;19931;-59
2022/11/25 08:38:21;;;;;;;;;;;;;;;5.56;78.20;101533.38;5104207;27;19915;-63
2022/11/25 08:40:47;;;;;;;;;;;;;;;5.56;78.49;101541.22;5109951;27;19923;-62
2022/11/25 08:43:12;;;;;;;;;;;;;;;5.55;78.42;101544.72;5109891;27;19924;-58
2022/11/25 08:45:38;;;;;;;;;;;;;;;5.55;78.51;101536.88;5111211;28;19923;-60
2022/11/25 08:48:04;;;;;;;;;;;;;;;5.57;78.37;101540.31;5087748;28;19927;-59
2022/11/25 08:50:29;;;;;;;;;;;;;;;5.56;78.56;101538.59;5108215;28;19915;-62
2022/11/25 08:52:56;;;;;;;;;;;;;;;5.61;78.58;101536.75;5112593;27;19923;-58
2022/11/25 08:55:24;;;;;;;;;;;;;;;5.62;78.29;101543.69;5111088;27;20468;-61
2022/11/25 08:57:50;;;;;;;;;;;;;;;5.64;78.36;101547.97;5104481;27;19920;-62
2022/11/25 09:00:15;;;;;;;;;;;;;;;5.66;78.28;101547.94;5097666;28;19920;-59
2022/11/25 09:02:41;;;;;;;;;;;;;;;5.69;77.94;101555.69;5104395;28;19972;-62
2022/11/25 09:05:06;;;;;;;;;;;;;;;5.69;78.02;101550.47;5113165;27;19927;-60
2022/11/25 09:07:32;;;;;;;;;;;;;;;5.73;78.29;101552.13;5114590;27;20007;-58
2022/11/25 09:09:57;;;;;;;;;;;;;;;5.73;77.89;101552.13;5090788;28;20011;-59
2022/11/25 09:12:23;;;;;;;;;;;;;;;5.74;77.95;101559.06;5113735;27;20047;-59
2022/11/25 09:14:48;;;;;;;;;;;;;;;5.77;77.64;101553.75;5104318;28;20352;-58
2022/11/25 09:17:15;;;;;;;;;;;;;;;5.77;78.01;101561.59;5072163;28;19931;-58
2022/11/25 09:19:40;;;;;;;;;;;;;;;5.80;78.10;101558.03;5108733;27;19920;-61
2022/11/25 09:22:06;;;;;;;;;;;;;;;5.80;77.95;101558.91;5108049;28;19924;-59
2022/11/25 09:24:33;;;;;;;;;;;;;;;5.85;78.08;101557.91;5110905;28;19920;-60
2022/11/25 09:26:58;;;;;;;;;;;;;;;5.85;78.28;101560.53;5093140;28;19915;-58
2022/11/25 09:29:24;;;;;;;;;;;;;;;5.88;78.13;101560.47;5110321;27;19924;-59
2022/11/25 09:31:49;;;;;;;;;;;;;;;5.92;77.96;101559.50;5107659;28;19920;-59
2022/11/25 09:34:14;;;;;;;;;;;;;;;5.92;77.96;101562.94;5102303;27;19926;-62
2022/11/25 09:36:40;;;;;;;;;;;;;;;5.96;77.87;101558.53;5111421;27;19920;-61
2022/11/25 09:39:05;;;;;;;;;;;;;;;5.99;77.86;101561.03;5113430;27;20010;-58
2022/11/25 09:47:26;;;;;;;;;;;;;;;6.10;77.50;101566.03;5103647;27;19924;-60
2022/11/25 09:49:54;;;;;;;;;;;;;;;6.14;77.43;101562.44;5106355;28;19919;-62
2022/11/25 09:52:23;;;;;;;;;;;;;;;6.17;77.48;101556.28;5102890;28;19920;-58
2022/11/25 09:55:02;;;;;;;;;;;;;;;6.22;77.53;101557.03;5093959;28;19912;-59
2022/11/25 09:57:31;;;;;;;;;;;;;;;6.21;77.64;101558.75;5106955;28;20310;-58
2022/11/25 10:00:03;;;;;;;;;;;;;;;6.25;77.72;101559.56;5106281;28;19916;-61
2022/11/25 10:02:34;;;;;;;;;;;;;;;6.31;77.26;101559.38;5111036;27;19931;-60
2022/11/25 10:05:04;;;;;;;;;;;;;;;6.36;77.00;101552.28;5104994;28;19920;-61
2022/11/25 10:07:35;;;;;;;;;;;;;;;6.38;77.30;101558.34;5098385;28;20703;-63
2022/11/25 10:10:02;;;;;;;;;;;;;;;6.39;77.01;101557.44;5101415;28;19951;-61
2022/11/25 10:12:29;;;;;;;;;;;;;;;6.41;77.03;101557.38;5102306;27;20314;-60
2022/11/25 10:15:02;;;;;;;;;;;;;;;6.47;76.98;101557.22;5105248;27;19920;-59
2022/11/25 10:17:41;;;;;;;;;;;;;;;6.54;76.98;101563.16;5113159;27;19934;-59
2022/11/25 10:20:12;;;;;;;;;;;;;;;6.60;76.69;101569.97;5109295;28;19939;-58
2022/11/25 10:22:42;;;;;;;;;;;;;;;6.60;76.66;101570.81;5107595;28;19920;-61
2022/11/25 10:25:13;;;;;;;;;;;;;;;6.59;76.62;101566.47;5108947;28;19920;-59
2022/11/25 10:27:42;;;;;;;;;;;;;;;6.60;76.54;101576.03;5103784;28;19922;-62
2022/11/25 10:30:14;;;;;;;;;;;;;;;6.60;76.73;101570.81;5107637;28;19922;-61
2022/11/25 10:32:42;;;;;;;;;;;;;;;6.61;76.48;101566.44;5104189;28;19916;-58
2022/11/25 10:35:15;;;;;;;;;;;;;;;6.61;76.57;101566.44;5108957;27;19927;-58
2022/11/25 10:37:43;;;;;;;;;;;;;;;6.64;76.81;101553.28;5106015;27;19965;-58
2022/11/25 10:40:18;;;;;;;;;;;;;;;6.67;76.88;101547.94;5105664;28;19941;-58
2022/11/25 10:42:43;;;;;;;;;;;;;;;6.70;76.77;101551.34;5106287;28;20003;-61
2022/11/25 10:45:09;;;;;;;;;;;;;;;6.75;76.67;101555.56;5092837;28;20015;-61
2022/11/25 10:47:47;;;;;;;;;;;;;;;6.77;76.86;101556.38;5104090;28;20294;-59
2022/11/25 10:50:28;;;;;;;;;;;;;;;6.80;76.64;101554.56;5100257;28;19923;-62
2022/11/25 10:52:59;;;;;;;;;;;;;;;6.83;76.48;101556.22;5107048;27;19943;-58
2022/11/25 10:55:28;;;;;;;;;;;;;;;6.85;76.47;101557.88;5107056;27;19942;-62
2022/11/25 10:57:53;;;;;;;;;;;;;;;6.89;76.18;101556.03;5102168;28;19961;-59
2022/11/25 11:00:27;;;;;;;;;;;;;;;6.91;76.63;101551.63;5108013;28;19916;-60
2022/11/25 11:02:53;;;;;;;;;;;;;;;6.90;76.44;101555.13;5106439;28;20390;-59
2022/11/25 11:05:22;;;;;;;;;;;;;;;6.95;76.43;101561.09;5103770;28;20015;-58
2022/11/25 11:08:05;;;;;;;;;;;;;;;6.97;76.33;101548.84;5107628;28;19923;-60
2022/11/25 11:10:30;;;;;;;;;;;;;;;7.01;76.52;101560.94;5095170;28;19919;-58
2022/11/25 11:12:57;;;;;;;;;;;;;;;7.01;76.29;101560.94;5104573;28;20279;-58
2022/11/25 11:15:43;;;;;;;;;;;;;;;7.03;76.34;101557.41;5109366;28;20377;-58
2022/11/25 11:18:20;;;;;;;;;;;;;;;7.05;76.49;101555.56;5103736;28;19965;-59
2022/11/25 11:20:46;;;;;;;;;;;;;;;7.07;76.61;101554.66;5103703;28;19924;-60
2022/11/25 11:23:13;;;;;;;;;;;;;;;7.13;76.36;101558.84;5104159;28;19916;-59
2022/11/25 11:25:41;;;;;;;;;;;;;;;7.19;76.25;101549.94;5107161;28;20287;-61
2022/11/25 11:28:25;;;;;;;;;;;;;;;7.24;76.38;101561.97;5112343;28;20429;-62
2022/11/25 11:31:01;;;;;;;;;;;;;;;7.31;76.09;101560.91;5111369;28;19935;-61
2022/11/25 11:33:33;;;;;;;;;;;;;;;7.35;76.00;101563.41;5103436;28;20203;-60
2022/11/25 11:36:01;;;;;;;;;;;;;;;7.33;75.94;101560.84;5098744;28;19916;-60
2022/11/25 11:38:35;;;;;;;;;;;;;;;7.31;76.16;101558.28;5108270;28;19912;-64
2022/11/25 11:41:07;;;;;;;;;;;;;;;7.31;76.06;101554.78;5102039;28;19965;-60
2022/11/25 11:43:58;;;;;;;;;;;;;;;7.35;76.28;101547.69;5106479;28;19915;-63
2022/11/25 11:46:23;;;;;;;;;;;;;;;7.41;76.66;101548.34;5104595;28;19920;-64
2022/11/25 11:49:02;;;;;;;;;;;;;;;7.47;76.46;101553.41;5113397;28;19957;-61
2022/11/25 11:51:56;;;;;;;;;;;;;;;7.55;76.32;101554.94;5109580;28;19920;-63
2022/11/25 11:54:28;;;;;;;;;;;;;;;7.61;76.02;101560.84;5084587;28;19973;-64
2022/11/25 11:57:03;;;;;;;;;;;;;;;7.61;75.90;101555.59;5112110;28;20034;-63
2022/11/25 11:59:47;;;;;;;;;;;;;;;7.65;76.02;101566.81;5111284;28;19922;-65
2022/11/25 12:02:12;;;;;;;;;;;;;;;7.63;75.89;101564.28;5110822;28;19916;-59
2022/11/25 12:04:41;;;;;;;;;;;;;;;7.60;76.06;101558.25;5109177;28;19920;-60
2022/11/25 12:07:21;;;;;;;;;;;;;;;7.57;75.90;101559.22;5109251;28;19924;-58
2022/11/25 12:10:07;;;;;;;;;;;;;;;7.55;76.08;101561.03;5104470;28;19916;-58
2022/11/25 12:12:37;;;;;;;;;;;;;;;7.54;76.22;101554.06;5080149;28;20267;-61
2022/11/25 12:15:09;;;;;;;;;;;;;;;7.52;76.25;101555.88;5100895;28;19953;-60
2022/11/25 12:17:44;;;;;;;;;;;;;;;7.49;76.22;101550.72;5105646;28;19923;-59
2022/11/25 12:20:28;;;;;;;;;;;;;;;7.49;76.44;101561.19;5104802;28;19946;-60
2022/11/25 12:22:56;;;;;;;;;;;;;;;7.50;76.57;101556.84;5104639;27;19923;-59
2022/11/25 12:25:24;;;;;;;;;;;;;;;7.46;76.51;101551.69;5104683;27;19916;-58
2022/11/25 12:27:49;;;;;;;;;;;;;;;7.46;76.53;101551.69;5105169;27;19954;-63
2022/11/25 12:30:18;;;;;;;;;;;;;;;7.47;76.72;101547.34;5108467;28;20581;-60
2022/11/25 12:32:50;;;;;;;;;;;;;;;7.47;76.72;101548.16;5111645;28;20383;-62
2022/11/25 12:35:18;;;;;;;;;;;;;;;7.47;77.07;101544.72;5110882;27;19919;-60
2022/11/25 12:37:56;;;;;;;;;;;;;;;7.51;76.94;101538.44;5110273;27;19922;-59
2022/11/25 12:40:28;;;;;;;;;;;;;;;7.57;76.81;101538.25;5107467;28;20429;-57
2022/11/25 12:42:58;;;;;;;;;;;;;;;7.63;76.62;101532.84;5105307;27;19916;-57
2022/11/25 12:45:24;;;;;;;;;;;;;;;7.67;76.65;101537.94;5108814;27;19915;-59
2022/11/25 12:47:51;;;;;;;;;;;;;;;7.66;76.66;101537.09;5106307;27;20003;-59
2022/11/25 12:50:19;;;;;;;;;;;;;;;7.66;76.69;101536.25;5107836;27;19920;-58
2022/11/25 12:53:03;;;;;;;;;;;;;;;7.68;76.74;101542.28;5114280;27;19953;-62
2022/11/25 12:55:29;;;;;;;;;;;;;;;7.66;76.49;101547.59;5104855;28;20015;-60
2022/11/25 12:58:13;;;;;;;;;;;;;;;7.68;76.57;101550.16;5108625;28;20006;-58
2022/11/25 13:00:48;;;;;;;;;;;;;;;7.66;76.53;101552.81;5107676;28;19912;-60
2022/11/25 13:03:25;;;;;;;;;;;;;;;7.65;76.58;101550.25;5107545;27;19919;-61